Time;durP1;ratioP1;P1;durP2;ratioP2;P2;SDS_P1;SDS_P2;PMS_P1;PMS_P2;Temp;Humidity;BMP_temperature;BMP_pressure;BME280_temperature;BME280_humidity;BME280_pressure;Samples;Min_cycle;Max_cycle;Signal;HPM_P1;HPM_P2
2021/12/06 00:01:31;;;;;;;98.43;54.08;;;;;;;;;;5035390;28;20079;-47
2021/12/06 00:03:58;;;;;;;95.90;52.22;;;;;;;;;;5035203;28;20025;-51
2021/12/06 00:06:25;;;;;;;72.95;44.03;;;;;;;;;;5035177;28;20026;-41
2021/12/06 00:08:51;;;;;;;75.82;45.70;;;;;;;;;;5035138;28;20478;-41
2021/12/06 00:11:17;;;;;;;81.50;45.65;;;;;;;;;;5034801;28;20041;-46
2021/12/06 00:13:45;;;;;;;73.50;43.17;;;;;;;;;;5034978;28;20025;-47
2021/12/06 00:16:16;;;;;;;76.47;43.67;;;;;;;;;;5034872;28;20116;-46
2021/12/06 00:18:42;;;;;;;81.43;44.70;;;;;;;;;;5034935;28;20025;-48
2021/12/06 00:21:09;;;;;;;100.18;54.08;;;;;;;;;;5034868;28;20437;-47
2021/12/06 00:23:35;;;;;;;81.97;46.58;;;;;;;;;;5033964;28;20025;-47
2021/12/06 00:26:01;;;;;;;83.28;47.85;;;;;;;;;;5034691;28;20037;-46
2021/12/06 00:28:28;;;;;;;81.60;46.55;;;;;;;;;;5034825;28;20049;-48
2021/12/06 00:30:57;;;;;;;79.72;46.80;;;;;;;;;;5034698;28;20034;-45
2021/12/06 00:33:27;;;;;;;84.43;48.05;;;;;;;;;;5034668;28;20029;-44
2021/12/06 00:36:02;;;;;;;79.60;43.00;;;;;;;;;;5034623;28;20021;-44
2021/12/06 00:38:28;;;;;;;81.03;44.25;;;;;;;;;;5034464;28;20076;-47
2021/12/06 00:40:54;;;;;;;70.22;41.47;;;;;;;;;;5034439;28;20026;-48
2021/12/06 00:43:20;;;;;;;65.68;39.63;;;;;;;;;;5034438;28;20022;-45
2021/12/06 00:45:47;;;;;;;67.75;36.70;;;;;;;;;;5034456;28;20026;-45
2021/12/06 00:48:13;;;;;;;81.78;45.58;;;;;;;;;;5034429;28;20030;-43
2021/12/06 00:50:40;;;;;;;76.68;40.95;;;;;;;;;;5034242;28;20056;-40
2021/12/06 00:53:06;;;;;;;67.45;35.20;;;;;;;;;;5034749;28;20036;-41
2021/12/06 00:55:33;;;;;;;67.18;36.05;;;;;;;;;;5032987;28;20022;-41
2021/12/06 00:58:00;;;;;;;64.30;33.42;;;;;;;;;;5034127;28;20097;-48
2021/12/06 01:00:46;;;;;;;64.80;33.97;;;;;;;;;;5034312;28;20029;-49
2021/12/06 01:03:22;;;;;;;56.50;29.95;;;;;;;;;;5034122;28;20033;-45
2021/12/06 01:05:48;;;;;;;54.15;29.52;;;;;;;;;;5034150;28;20500;-41
2021/12/06 01:08:14;;;;;;;54.15;29.40;;;;;;;;;;5033902;28;20032;-48
2021/12/06 01:10:41;;;;;;;44.22;25.67;;;;;;;;;;5033806;28;20044;-47
2021/12/06 01:13:07;;;;;;;53.03;30.48;;;;;;;;;;5033904;28;20108;-49
2021/12/06 01:15:35;;;;;;;50.50;27.05;;;;;;;;;;5033821;28;20524;-48
2021/12/06 01:18:04;;;;;;;47.95;27.58;;;;;;;;;;5033934;28;20033;-47
2021/12/06 01:20:34;;;;;;;52.45;30.92;;;;;;;;;;5033832;28;20028;-47
2021/12/06 01:23:06;;;;;;;50.70;28.73;;;;;;;;;;5033825;28;20041;-48
2021/12/06 01:26:12;;;;;;;44.33;25.13;;;;;;;;;;5033622;28;20017;-47
2021/12/06 01:39:18;;;;;;;80.60;36.70;;;;;;;;;;4972618;28;20093;-46
2021/12/06 01:41:44;;;;;;;;;;;;;;;;;;4972936;28;20078;-47
2021/12/06 01:44:15;;;;;;;68.65;32.22;;;;;;;;;;4949243;28;20054;-44
2021/12/06 01:46:46;;;;;;;79.88;37.67;;;;;;;;;;4942173;28;20041;-47
2021/12/06 01:49:12;;;;;;;62.22;29.77;;;;;;;;;;4941900;28;20035;-44
2021/12/06 01:51:42;;;;;;;72.95;35.47;;;;;;;;;;4941633;28;21124;-44
2021/12/06 01:54:09;;;;;;;50.28;26.27;;;;;;;;;;4942381;28;20628;-46
2021/12/06 01:56:35;;;;;;;64.65;31.45;;;;;;;;;;4941769;28;20054;-40
2021/12/06 01:59:01;;;;;;;74.75;34.50;;;;;;;;;;4946511;28;20034;-44
2021/12/06 02:01:28;;;;;;;80.60;37.92;;;;;;;;;;4941901;28;20050;-44
2021/12/06 02:03:54;;;;;;;71.47;33.83;;;;;;;;;;4941720;28;20045;-49
2021/12/06 02:06:23;;;;;;;84.18;37.70;;;;;;;;;;4941891;28;20133;-47
2021/12/06 02:08:51;;;;;;;71.82;31.70;;;;;;;;;;4941636;28;20824;-45
2021/12/06 02:11:17;;;;;;;71.40;30.50;;;;;;;;;;4954280;28;20489;-42
2021/12/06 02:13:54;;;;;;;59.10;27.00;;;;;;;;;;4981747;28;20132;-46
2021/12/06 02:16:29;;;;;;;53.95;25.50;;;;;;;;;;5003576;28;20192;-44
2021/12/06 02:19:02;;;;;;;45.38;21.40;;;;;;;;;;5003325;28;20041;-41
2021/12/06 02:21:33;;;;;;;42.83;20.65;;;;;;;;;;5003146;28;20033;-43
2021/12/06 02:24:04;;;;;;;42.35;21.23;;;;;;;;;;5003241;28;20108;-47
2021/12/06 02:26:32;;;;;;;49.08;23.45;;;;;;;;;;5003164;28;20045;-47
2021/12/06 02:28:59;;;;;;;52.97;24.80;;;;;;;;;;5002739;28;20168;-42
2021/12/06 02:31:26;;;;;;;60.28;28.83;;;;;;;;;;5031708;28;20040;-44
2021/12/06 02:33:52;;;;;;;47.85;21.27;;;;;;;;;;5052868;28;20028;-47
2021/12/06 02:36:20;;;;;;;45.03;20.60;;;;;;;;;;5052725;28;20485;-47
2021/12/06 02:38:47;;;;;;;40.28;18.85;;;;;;;;;;5052863;28;20029;-49
2021/12/06 02:41:15;;;;;;;64.97;32.10;;;;;;;;;;5052847;28;20028;-48
2021/12/06 02:43:41;;;;;;;34.05;19.33;;;;;;;;;;5038269;28;20025;-48
2021/12/06 02:46:07;;;;;;;36.83;18.67;;;;;;;;;;5033021;28;20026;-46
2021/12/06 02:48:34;;;;;;;36.92;18.98;;;;;;;;;;5036739;28;20046;-44
2021/12/06 02:51:01;;;;;;;34.30;17.55;;;;;;;;;;5036576;28;20045;-49
2021/12/06 02:53:31;;;;;;;63.28;33.50;;;;;;;;;;5036662;28;20539;-45
2021/12/06 02:55:59;;;;;;;32.63;17.33;;;;;;;;;;5036588;28;20112;-42
2021/12/06 03:01:02;;;;;;;72.30;37.28;;;;;;;;;;5036533;28;20091;-43
2021/12/06 03:03:28;;;;;;;49.92;25.70;;;;;;;;;;5036425;28;20032;-41
2021/12/06 03:05:55;;;;;;;45.65;24.75;;;;;;;;;;5036225;28;20113;-42
2021/12/06 03:08:38;;;;;;;31.92;17.70;;;;;;;;;;5036457;28;20033;-41
2021/12/06 03:11:06;;;;;;;35.03;18.75;;;;;;;;;;5036230;28;20029;-41
2021/12/06 03:13:32;;;;;;;34.88;18.35;;;;;;;;;;5036225;28;20388;-43
2021/12/06 03:15:58;;;;;;;30.75;16.75;;;;;;;;;;5036080;28;20046;-41
2021/12/06 03:18:24;;;;;;;32.72;17.77;;;;;;;;;;5036089;28;20171;-45
2021/12/06 03:20:50;;;;;;;34.78;18.42;;;;;;;;;;5036095;28;20029;-45
2021/12/06 03:23:16;;;;;;;41.75;23.65;;;;;;;;;;5036051;28;20496;-44
2021/12/06 03:25:44;;;;;;;47.00;26.55;;;;;;;;;;5034951;28;20393;-45
2021/12/06 03:28:10;;;;;;;30.90;17.90;;;;;;;;;;5034834;28;20029;-43
2021/12/06 03:30:36;;;;;;;38.45;22.30;;;;;;;;;;5035846;28;20049;-42
2021/12/06 03:33:02;;;;;;;31.90;18.65;;;;;;;;;;5036044;28;20056;-47
2021/12/06 03:35:28;;;;;;;34.13;19.85;;;;;;;;;;5036038;28;20028;-45
2021/12/06 03:37:54;;;;;;;28.38;17.10;;;;;;;;;;5035882;28;20488;-42
2021/12/06 03:40:20;;;;;;;40.95;23.27;;;;;;;;;;5035855;28;20022;-44
2021/12/06 03:42:47;;;;;;;30.92;17.40;;;;;;;;;;5035810;28;20030;-47
2021/12/06 03:45:16;;;;;;;34.83;19.80;;;;;;;;;;5035737;28;20056;-49
2021/12/06 03:47:42;;;;;;;27.88;17.33;;;;;;;;;;5035644;28;20501;-49
2021/12/06 03:50:09;;;;;;;43.47;25.40;;;;;;;;;;5035561;28;20028;-48
2021/12/06 03:52:35;;;;;;;30.10;18.13;;;;;;;;;;5035768;28;20041;-50
2021/12/06 03:55:03;;;;;;;34.90;20.98;;;;;;;;;;5035633;28;20358;-48
2021/12/06 03:57:30;;;;;;;33.95;19.88;;;;;;;;;;5035568;28;20025;-46
2021/12/06 03:59:56;;;;;;;39.95;23.50;;;;;;;;;;5035513;28;20417;-49
2021/12/06 04:02:23;;;;;;;33.25;19.55;;;;;;;;;;5035272;28;20026;-49
2021/12/06 04:04:52;;;;;;;43.35;24.85;;;;;;;;;;5035378;28;20028;-41
2021/12/06 04:07:18;;;;;;;30.50;19.05;;;;;;;;;;5034262;28;20024;-41
2021/12/06 04:09:44;;;;;;;32.97;19.65;;;;;;;;;;5035450;28;20022;-41
2021/12/06 04:12:11;;;;;;;30.23;18.35;;;;;;;;;;5035037;28;20044;-49
2021/12/06 04:14:38;;;;;;;31.15;19.02;;;;;;;;;;5034987;28;20486;-42
2021/12/06 04:17:04;;;;;;;27.60;17.30;;;;;;;;;;5035101;28;20640;-44
2021/12/06 04:19:33;;;;;;;28.95;17.35;;;;;;;;;;5035116;28;20025;-43
2021/12/06 04:22:00;;;;;;;26.48;16.92;;;;;;;;;;5035111;28;20163;-42
2021/12/06 04:24:26;;;;;;;28.23;17.30;;;;;;;;;;5034944;28;20024;-42
2021/12/06 04:26:52;;;;;;;29.95;17.45;;;;;;;;;;5034936;28;20381;-46
2021/12/06 04:29:19;;;;;;;29.35;17.05;;;;;;;;;;5034839;28;20488;-47
2021/12/06 04:31:48;;;;;;;34.65;21.65;;;;;;;;;;5034783;28;20040;-44
2021/12/06 04:34:14;;;;;;;27.02;17.45;;;;;;;;;;5034730;28;20033;-48
2021/12/06 04:36:43;;;;;;;24.75;15.65;;;;;;;;;;5034943;28;20057;-48
2021/12/06 04:39:10;;;;;;;27.95;18.05;;;;;;;;;;5034734;28;20018;-49
2021/12/06 04:41:37;;;;;;;31.45;19.33;;;;;;;;;;5034532;28;20022;-49
2021/12/06 04:44:05;;;;;;;24.02;15.40;;;;;;;;;;5034795;28;20355;-50
2021/12/06 04:46:34;;;;;;;28.17;17.45;;;;;;;;;;5034493;28;20034;-50
2021/12/06 04:49:00;;;;;;;24.15;15.98;;;;;;;;;;5034582;28;20017;-48
2021/12/06 04:51:26;;;;;;;27.30;16.67;;;;;;;;;;5034462;28;20478;-49
2021/12/06 04:53:53;;;;;;;24.90;15.07;;;;;;;;;;5034381;28;20030;-47
2021/12/06 04:56:21;;;;;;;32.22;19.67;;;;;;;;;;5034285;28;20091;-49
2021/12/06 04:58:50;;;;;;;27.58;16.92;;;;;;;;;;5034195;28;20022;-45
2021/12/06 05:01:20;;;;;;;27.15;17.85;;;;;;;;;;5034153;28;20057;-47
2021/12/06 05:03:46;;;;;;;28.67;17.45;;;;;;;;;;5034322;28;20096;-42
2021/12/06 05:06:15;;;;;;;31.08;18.63;;;;;;;;;;5034134;28;20036;-43
2021/12/06 05:08:43;;;;;;;31.15;18.63;;;;;;;;;;5032900;28;20056;-43
2021/12/06 05:11:10;;;;;;;40.25;22.75;;;;;;;;;;5033469;28;20100;-41
2021/12/06 05:13:38;;;;;;;32.38;19.05;;;;;;;;;;5034052;28;20033;-40
2021/12/06 05:16:04;;;;;;;33.45;19.08;;;;;;;;;;5033853;28;20088;-42
2021/12/06 05:18:30;;;;;;;32.20;19.65;;;;;;;;;;5034202;28;20094;-41
2021/12/06 05:20:56;;;;;;;34.50;19.55;;;;;;;;;;5033895;28;20019;-49
2021/12/06 05:23:22;;;;;;;37.58;20.83;;;;;;;;;;5033862;28;20503;-40
2021/12/06 05:25:49;;;;;;;34.88;20.52;;;;;;;;;;5034137;28;20029;-42
2021/12/06 05:28:17;;;;;;;34.45;21.27;;;;;;;;;;5033740;28;20030;-44
2021/12/06 05:30:44;;;;;;;32.92;18.77;;;;;;;;;;5033533;28;20083;-50
2021/12/06 05:33:17;;;;;;;33.72;18.63;;;;;;;;;;5033802;28;20112;-42
2021/12/06 05:35:44;;;;;;;32.53;18.88;;;;;;;;;;5033859;28;20033;-42
2021/12/06 05:38:10;;;;;;;34.08;21.27;;;;;;;;;;5033849;28;20033;-42
2021/12/06 05:40:36;;;;;;;32.63;19.73;;;;;;;;;;5033551;28;20421;-48
2021/12/06 05:43:05;;;;;;;37.25;22.58;;;;;;;;;;5033581;28;20025;-48
2021/12/06 05:45:33;;;;;;;30.92;19.48;;;;;;;;;;5033405;28;20029;-46
2021/12/06 05:47:59;;;;;;;29.23;18.67;;;;;;;;;;5033769;28;20083;-45
2021/12/06 05:50:25;;;;;;;27.27;18.20;;;;;;;;;;5033544;28;20030;-41
2021/12/06 05:52:54;;;;;;;28.10;17.20;;;;;;;;;;5033662;28;20037;-41
2021/12/06 05:55:20;;;;;;;26.67;17.85;;;;;;;;;;5033573;28;20060;-46
2021/12/06 05:57:46;;;;;;;30.30;18.48;;;;;;;;;;5033351;28;20083;-40
2021/12/06 06:00:14;;;;;;;68.70;33.75;;;;;;;;;;5033286;28;20109;-41
2021/12/06 06:02:41;;;;;;;25.67;16.77;;;;;;;;;;5033298;28;20033;-41
2021/12/06 06:05:09;;;;;;;30.55;18.35;;;;;;;;;;5033520;28;20492;-41
2021/12/06 06:07:35;;;;;;;30.67;18.95;;;;;;;;;;5033549;28;20025;-44
2021/12/06 06:10:01;;;;;;;25.20;14.95;;;;;;;;;;5033273;28;20500;-42
2021/12/06 06:12:28;;;;;;;21.60;15.07;;;;;;;;;;5033052;28;20048;-46
2021/12/06 06:14:54;;;;;;;21.92;14.82;;;;;;;;;;5032930;28;20038;-41
2021/12/06 06:17:20;;;;;;;22.17;15.15;;;;;;;;;;5033116;28;20496;-41
2021/12/06 06:19:51;;;;;;;24.40;15.77;;;;;;;;;;5033336;28;20025;-41
2021/12/06 06:22:17;;;;;;;24.77;15.52;;;;;;;;;;5035162;28;20032;-42
2021/12/06 06:24:43;;;;;;;21.60;14.00;;;;;;;;;;5037363;28;20522;-41
2021/12/06 06:27:11;;;;;;;24.98;13.73;;;;;;;;;;5037198;28;20108;-41
2021/12/06 06:29:38;;;;;;;23.48;14.73;;;;;;;;;;5037170;28;20025;-41
2021/12/06 06:32:09;;;;;;;30.63;18.30;;;;;;;;;;5037085;28;20034;-41
2021/12/06 06:34:36;;;;;;;30.48;17.75;;;;;;;;;;5037325;28;20025;-42
2021/12/06 06:37:02;;;;;;;36.20;20.55;;;;;;;;;;5037126;28;20381;-41
2021/12/06 06:39:29;;;;;;;42.50;24.17;;;;;;;;;;5036945;28;20025;-41
2021/12/06 06:41:55;;;;;;;32.63;19.40;;;;;;;;;;5037097;28;20051;-41
2021/12/06 06:44:22;;;;;;;40.20;22.02;;;;;;;;;;5036669;28;20025;-41
2021/12/06 06:46:53;;;;;;;44.08;25.63;;;;;;;;;;5037213;28;20105;-43
2021/12/06 06:49:24;;;;;;;22.45;14.40;;;;;;;;;;5036962;28;20521;-50
2021/12/06 06:51:54;;;;;;;30.37;19.00;;;;;;;;;;5036707;28;20030;-41
2021/12/06 06:54:20;;;;;;;36.50;22.08;;;;;;;;;;5035558;28;20048;-42
2021/12/06 06:56:47;;;;;;;32.50;18.23;;;;;;;;;;5036774;28;20112;-41
2021/12/06 06:59:13;;;;;;;23.30;14.73;;;;;;;;;;5036816;28;20028;-41
2021/12/06 07:01:39;;;;;;;22.85;15.20;;;;;;;;;;5036653;28;20064;-42
2021/12/06 07:04:05;;;;;;;17.63;12.50;;;;;;;;;;5036692;28;20079;-48
2021/12/06 07:06:33;;;;;;;20.20;12.48;;;;;;;;;;5036526;28;20025;-40
2021/12/06 07:08:59;;;;;;;27.25;16.58;;;;;;;;;;5036452;28;20025;-41
2021/12/06 07:11:26;;;;;;;53.90;27.33;;;;;;;;;;5036303;28;20029;-41
2021/12/06 07:13:53;;;;;;;38.08;17.45;;;;;;;;;;5018558;28;20055;-41
2021/12/06 07:16:19;;;;;;;50.50;26.25;;;;;;;;;;5035112;28;20073;-51
2021/12/06 07:18:45;;;;;;;53.33;25.48;;;;;;;;;;5035247;28;20022;-43
2021/12/06 07:21:14;;;;;;;43.08;25.30;;;;;;;;;;5035051;28;20021;-44
2021/12/06 07:23:41;;;;;;;52.13;29.50;;;;;;;;;;5035193;28;20104;-46
2021/12/06 07:26:12;;;;;;;48.53;24.83;;;;;;;;;;5034996;28;20025;-50
2021/12/06 07:28:39;;;;;;;55.90;29.20;;;;;;;;;;5034998;28;20105;-49
2021/12/06 07:31:06;;;;;;;41.22;20.58;;;;;;;;;;5034898;28;20442;-43
2021/12/06 07:33:35;;;;;;;35.13;19.88;;;;;;;;;;5034421;28;20393;-49
2021/12/06 07:36:02;;;;;;;46.05;25.40;;;;;;;;;;5035003;28;20029;-41
2021/12/06 07:38:28;;;;;;;45.75;21.52;;;;;;;;;;5034795;28;20035;-49
2021/12/06 07:40:55;;;;;;;41.38;23.27;;;;;;;;;;5034709;28;20474;-42
2021/12/06 07:43:21;;;;;;;44.95;24.35;;;;;;;;;;5034522;28;20029;-46
2021/12/06 07:45:48;;;;;;;33.35;21.10;;;;;;;;;;5034528;28;20034;-42
2021/12/06 07:48:14;;;;;;;34.80;18.25;;;;;;;;;;5034617;28;20021;-46
2021/12/06 07:50:40;;;;;;;33.75;18.25;;;;;;;;;;5034702;28;20029;-42
2021/12/06 07:53:07;;;;;;;29.65;17.88;;;;;;;;;;5034480;28;20036;-43
2021/12/06 07:55:34;;;;;;;28.33;18.00;;;;;;;;;;5034572;28;20030;-49
2021/12/06 07:58:01;;;;;;;30.88;19.40;;;;;;;;;;5034412;28;20029;-50
2021/12/06 08:00:29;;;;;;;26.92;17.58;;;;;;;;;;5034692;28;20060;-49
2021/12/06 08:02:55;;;;;;;39.42;21.13;;;;;;;;;;5034486;28;20041;-47
2021/12/06 08:05:32;;;;;;;27.15;17.33;;;;;;;;;;5034550;28;20052;-46
2021/12/06 08:08:11;;;;;;;34.22;20.33;;;;;;;;;;5034436;28;20510;-50
2021/12/06 08:10:43;;;;;;;29.73;17.17;;;;;;;;;;5034326;28;20083;-48
2021/12/06 08:13:10;;;;;;;28.13;17.92;;;;;;;;;;5033981;28;20030;-50
2021/12/06 08:15:36;;;;;;;33.92;19.42;;;;;;;;;;4992372;28;1215032;-50
2021/12/06 08:18:02;;;;;;;30.52;19.38;;;;;;;;;;5035190;28;20505;-41
2021/12/06 08:20:28;;;;;;;24.63;17.23;;;;;;;;;;5035069;28;20512;-41
2021/12/06 08:22:55;;;;;;;32.35;20.55;;;;;;;;;;5035037;28;20025;-50
2021/12/06 08:25:21;;;;;;;30.73;19.13;;;;;;;;;;5034929;28;20025;-50
2021/12/06 08:27:47;;;;;;;29.63;17.60;;;;;;;;;;5035142;28;20482;-50
2021/12/06 08:30:14;;;;;;;38.58;22.55;;;;;;;;;;5035159;28;20029;-42
2021/12/06 08:32:40;;;;;;;33.50;20.20;;;;;;;;;;5034967;28;20034;-42
2021/12/06 08:35:07;;;;;;;35.78;21.85;;;;;;;;;;5035014;28;20022;-42
2021/12/06 08:37:36;;;;;;;35.67;19.77;;;;;;;;;;5035023;28;20025;-48
2021/12/06 08:40:02;;;;;;;29.67;17.60;;;;;;;;;;5034640;28;20504;-46
2021/12/06 08:42:28;;;;;;;31.33;18.98;;;;;;;;;;5034594;28;20079;-51
2021/12/06 08:44:54;;;;;;;34.67;21.52;;;;;;;;;;5033774;28;20371;-50
2021/12/06 08:47:20;;;;;;;32.28;20.27;;;;;;;;;;5033214;28;20045;-50
2021/12/06 08:49:46;;;;;;;35.42;21.58;;;;;;;;;;5034479;28;20030;-49
2021/12/06 08:52:14;;;;;;;44.80;25.65;;;;;;;;;;5034392;28;20033;-50
2021/12/06 08:54:41;;;;;;;36.50;20.27;;;;;;;;;;5034270;28;20017;-51
2021/12/06 08:57:07;;;;;;;47.92;25.58;;;;;;;;;;5034264;28;20044;-53
2021/12/06 08:59:33;;;;;;;41.33;23.92;;;;;;;;;;5034369;28;20049;-49
2021/12/06 09:01:59;;;;;;;48.13;23.70;;;;;;;;;;5033742;28;20472;-45
2021/12/06 09:04:33;;;;;;;41.38;24.77;;;;;;;;;;5034273;28;20026;-44
2021/12/06 09:07:01;;;;;;;39.67;23.38;;;;;;;;;;5034065;28;20083;-44
2021/12/06 09:09:30;;;;;;;50.47;29.25;;;;;;;;;;5034132;28;20029;-46
2021/12/06 09:11:57;;;;;;;62.92;36.33;;;;;;;;;;5033489;28;20535;-43
2021/12/06 09:14:23;;;;;;;61.83;33.55;;;;;;;;;;5033844;28;20064;-44
2021/12/06 09:16:50;;;;;;;45.75;25.65;;;;;;;;;;5034194;28;20485;-44
2021/12/06 09:19:16;;;;;;;52.60;29.25;;;;;;;;;;5034021;28;20029;-48
2021/12/06 09:21:43;;;;;;;37.47;21.85;;;;;;;;;;5033954;28;20429;-48
2021/12/06 09:24:11;;;;;;;46.33;27.80;;;;;;;;;;5034167;28;20446;-43
2021/12/06 09:26:38;;;;;;;41.85;24.63;;;;;;;;;;5033860;28;20028;-48
2021/12/06 09:29:04;;;;;;;47.53;24.45;;;;;;;;;;5033783;28;20032;-47
2021/12/06 09:31:31;;;;;;;39.67;25.05;;;;;;;;;;5033381;28;20029;-42
2021/12/06 09:33:57;;;;;;;36.85;22.55;;;;;;;;;;5033724;28;20057;-46
2021/12/06 09:36:25;;;;;;;43.88;25.58;;;;;;;;;;5033672;28;20420;-45
2021/12/06 09:38:52;;;;;;;39.83;24.20;;;;;;;;;;5033731;28;20450;-45
2021/12/06 09:41:23;;;;;;;52.55;30.40;;;;;;;;;;5033566;28;20024;-45
2021/12/06 09:43:51;;;;;;;54.07;29.47;;;;;;;;;;5033418;28;20025;-46
2021/12/06 09:46:17;;;;;;;59.65;33.03;;;;;;;;;;5033596;28;20167;-47
2021/12/06 09:48:47;;;;;;;73.30;38.10;;;;;;;;;;5033547;28;20100;-47
2021/12/06 09:51:17;;;;;;;53.33;30.65;;;;;;;;;;5033350;28;20052;-47
2021/12/06 09:53:44;;;;;;;67.25;34.40;;;;;;;;;;5033698;28;20443;-51
2021/12/06 09:56:15;;;;;;;118.35;58.63;;;;;;;;;;5033380;28;20155;-49
2021/12/06 09:58:42;;;;;;;61.58;33.08;;;;;;;;;;5033502;28;20021;-49
2021/12/06 10:01:16;;;;;;;51.33;27.10;;;;;;;;;;5033239;28;20060;-52
2021/12/06 10:03:44;;;;;;;42.13;24.38;;;;;;;;;;5033342;28;20150;-47
2021/12/06 10:06:11;;;;;;;35.22;21.17;;;;;;;;;;5033281;28;20116;-46
2021/12/06 10:08:39;;;;;;;37.35;22.88;;;;;;;;;;5033402;28;20104;-43
2021/12/06 10:11:06;;;;;;;48.38;24.38;;;;;;;;;;5033283;28;20049;-50
2021/12/06 10:13:33;;;;;;;42.40;26.42;;;;;;;;;;5033064;28;20040;-48
2021/12/06 10:15:59;;;;;;;53.78;32.28;;;;;;;;;;5032910;28;20081;-43
2021/12/06 10:18:25;;;;;;;55.40;30.83;;;;;;;;;;5033059;28;20037;-44
2021/12/06 10:20:51;;;;;;;77.40;39.60;;;;;;;;;;5033219;28;20021;-44
2021/12/06 10:23:18;;;;;;;93.55;48.38;;;;;;;;;;5033065;28;20025;-44
2021/12/06 10:25:46;;;;;;;73.55;40.03;;;;;;;;;;5033083;28;20021;-41
2021/12/06 10:28:13;;;;;;;27.52;17.90;;;;;;;;;;5032979;28;20489;-41
2021/12/06 10:30:48;;;;;;;49.85;23.23;;;;;;;;;;5031645;28;20454;-46
2021/12/06 10:33:16;;;;;;;52.40;28.17;;;;;;;;;;5032853;28;20523;-44
2021/12/06 10:35:45;;;;;;;29.70;15.77;;;;;;;;;;5032938;28;20386;-45
2021/12/06 10:38:14;;;;;;;42.95;23.58;;;;;;;;;;5032892;28;20053;-44
2021/12/06 10:40:41;;;;;;;43.05;24.73;;;;;;;;;;5032924;28;20377;-41
2021/12/06 10:43:09;;;;;;;62.08;34.13;;;;;;;;;;5032931;28;20536;-42
2021/12/06 10:45:37;;;;;;;54.83;29.75;;;;;;;;;;5032925;28;20037;-44
2021/12/06 10:48:14;;;;;;;53.78;32.03;;;;;;;;;;5032814;28;20105;-40
2021/12/06 10:50:45;;;;;;;80.00;41.28;;;;;;;;;;5033027;28;20354;-41
2021/12/06 10:53:14;;;;;;;47.25;25.50;;;;;;;;;;5032810;28;20485;-42
2021/12/06 10:55:41;;;;;;;80.20;38.63;;;;;;;;;;5032943;28;20029;-41
2021/12/06 10:58:08;;;;;;;53.17;27.15;;;;;;;;;;5032869;28;20432;-50
2021/12/06 11:00:37;;;;;;;59.00;29.95;;;;;;;;;;5032561;28;20034;-42
2021/12/06 11:03:04;;;;;;;56.60;30.08;;;;;;;;;;5032687;28;20112;-44
2021/12/06 11:05:39;;;;;;;55.63;31.55;;;;;;;;;;5032660;28;20026;-41
2021/12/06 11:08:08;;;;;;;51.70;26.73;;;;;;;;;;5034178;28;20028;-44
2021/12/06 11:10:38;;;;;;;46.00;27.00;;;;;;;;;;5036292;28;20030;-43
2021/12/06 11:13:13;;;;;;;60.03;32.50;;;;;;;;;;5036002;28;20042;-48
2021/12/06 11:16:00;;;;;;;50.40;29.80;;;;;;;;;;5036135;28;20081;-48
2021/12/06 11:18:55;;;;;;;61.72;31.52;;;;;;;;;;5036289;28;20028;-50
2021/12/06 11:21:24;;;;;;;82.50;42.58;;;;;;;;;;4975087;28;20042;-50
2021/12/06 11:23:56;;;;;;;103.63;52.30;;;;;;;;;;4975190;28;20101;-48
2021/12/06 11:26:23;;;;;;;65.90;36.08;;;;;;;;;;4975219;28;20038;-53
2021/12/06 11:28:49;;;;;;;60.72;34.78;;;;;;;;;;4973964;28;20066;-41
2021/12/06 11:31:16;;;;;;;56.35;32.00;;;;;;;;;;4975018;28;20117;-40
2021/12/06 11:33:42;;;;;;;47.88;25.77;;;;;;;;;;4974866;28;20118;-42
2021/12/06 11:36:23;;;;;;;47.42;26.50;;;;;;;;;;4974935;28;20427;-45
2021/12/06 11:38:57;;;;;;;39.28;22.48;;;;;;;;;;4974899;28;20062;-44
2021/12/06 11:41:23;;;;;;;44.90;24.42;;;;;;;;;;4974985;28;20147;-41
2021/12/06 11:43:49;;;;;;;44.47;23.20;;;;;;;;;;4958658;28;20104;-41
2021/12/06 11:46:27;;;;;;;47.78;25.75;;;;;;;;;;4974865;28;20042;-43
2021/12/06 11:48:53;;;;;;;46.38;27.58;;;;;;;;;;4974751;28;20023;-43
2021/12/06 11:51:19;;;;;;;57.97;32.53;;;;;;;;;;4974796;28;20047;-41
2021/12/06 11:53:46;;;;;;;51.83;27.17;;;;;;;;;;4974678;28;20045;-43
2021/12/06 11:56:18;;;;;;;54.05;29.30;;;;;;;;;;4974598;28;20506;-41
2021/12/06 11:58:46;;;;;;;50.17;29.23;;;;;;;;;;5030472;28;20393;-40
2021/12/06 12:01:14;;;;;;;43.88;24.23;;;;;;;;;;5035379;28;20531;-44
2021/12/06 12:03:44;;;;;;;47.42;25.15;;;;;;;;;;5035404;28;20056;-42
2021/12/06 12:06:40;;;;;;;50.90;27.70;;;;;;;;;;5035426;28;20021;-43
2021/12/06 12:09:13;;;;;;;52.05;29.25;;;;;;;;;;5022384;28;20516;-44
2021/12/06 12:11:58;;;;;;;56.78;31.38;;;;;;;;;;5035233;28;20083;-42
2021/12/06 12:14:30;;;;;;;51.83;28.45;;;;;;;;;;5034814;28;20034;-44
2021/12/06 12:16:56;;;;;;;54.97;28.80;;;;;;;;;;5035115;28;20083;-44
2021/12/06 12:19:22;;;;;;;44.63;25.42;;;;;;;;;;5033872;28;20022;-43
2021/12/06 12:21:49;;;;;;;52.25;29.13;;;;;;;;;;5035191;28;20021;-46
2021/12/06 12:24:15;;;;;;;50.03;25.92;;;;;;;;;;5035119;28;20037;-47
2021/12/06 12:26:51;;;;;;;42.05;23.60;;;;;;;;;;5034878;28;20024;-43
2021/12/06 12:29:24;;;;;;;39.17;21.52;;;;;;;;;;5034617;28;20376;-50
2021/12/06 12:31:52;;;;;;;45.00;24.17;;;;;;;;;;5034836;28;20022;-49
2021/12/06 12:34:19;;;;;;;83.63;37.95;;;;;;;;;;5034920;28;20092;-52
2021/12/06 12:36:45;;;;;;;45.40;24.85;;;;;;;;;;5034895;28;20021;-53
2021/12/06 12:39:16;;;;;;;77.78;35.90;;;;;;;;;;5034931;28;20087;-52
2021/12/06 12:41:48;;;;;;;47.88;25.15;;;;;;;;;;5034925;28;20461;-48
2021/12/06 12:44:15;;;;;;;51.75;26.92;;;;;;;;;;5034614;28;20237;-42
2021/12/06 12:46:44;;;;;;;55.40;26.85;;;;;;;;;;5034832;28;20021;-43
2021/12/06 12:49:14;;;;;;;63.78;30.73;;;;;;;;;;5034852;28;20143;-45
2021/12/06 12:52:07;;;;;;;43.78;22.85;;;;;;;;;;5034679;28;20025;-41
2021/12/06 12:54:33;;;;;;;62.50;32.05;;;;;;;;;;5032127;28;20179;-53
2021/12/06 12:57:12;;;;;;;46.83;26.17;;;;;;;;;;5034765;28;20021;-49
2021/12/06 12:59:52;;;;;;;54.17;30.50;;;;;;;;;;5034457;28;20100;-48
2021/12/06 13:02:24;;;;;;;49.83;27.00;;;;;;;;;;5034487;28;20049;-43
2021/12/06 13:04:59;;;;;;;39.53;22.45;;;;;;;;;;5034481;28;20259;-48
2021/12/06 13:07:31;;;;;;;57.50;29.95;;;;;;;;;;5034316;28;20021;-48
2021/12/06 13:10:01;;;;;;;;;;;;;;;;;;5034781;28;20060;-40
2021/12/06 13:12:31;;;;;;;47.75;24.95;;;;;;;;;;5034257;28;19984;-50
2021/12/06 13:15:10;;;;;;;43.55;24.05;;;;;;;;;;5032512;28;20401;-50
2021/12/06 13:17:46;;;;;;;45.53;25.75;;;;;;;;;;5034270;28;20125;-44
2021/12/06 13:20:14;;;;;;;54.20;29.73;;;;;;;;;;5034242;28;20430;-49
2021/12/06 13:22:46;;;;;;;49.35;24.60;;;;;;;;;;5034082;28;20104;-50
2021/12/06 13:25:14;;;;;;;41.13;22.77;;;;;;;;;;5033905;28;20438;-42
2021/12/06 13:27:45;;;;;;;44.45;25.13;;;;;;;;;;5034017;28;20041;-48
2021/12/06 13:30:27;;;;;;;46.55;26.52;;;;;;;;;;5033529;28;20474;-52
2021/12/06 13:33:00;;;;;;;48.35;25.88;;;;;;;;;;5034096;28;20033;-46
2021/12/06 13:35:38;;;;;;;42.28;23.92;;;;;;;;;;5033854;28;20022;-52
2021/12/06 13:38:20;;;;;;;41.42;23.45;;;;;;;;;;5033639;28;20064;-50
2021/12/06 13:40:52;;;;;;;39.42;22.40;;;;;;;;;;5034116;28;20096;-43
2021/12/06 13:43:26;;;;;;;38.42;23.00;;;;;;;;;;5033580;28;20021;-44
2021/12/06 13:45:53;;;;;;;46.85;26.20;;;;;;;;;;5033605;28;20540;-48
2021/12/06 13:48:24;;;;;;;45.75;25.52;;;;;;;;;;5033555;28;20075;-51
2021/12/06 13:50:51;;;;;;;45.13;26.45;;;;;;;;;;5033472;28;20025;-46
2021/12/06 13:53:31;;;;;;;37.63;23.65;;;;;;;;;;5033575;28;20033;-48
2021/12/06 13:55:59;;;;;;;37.25;22.90;;;;;;;;;;5033695;28;20109;-52
2021/12/06 13:58:28;;;;;;;40.45;24.33;;;;;;;;;;5010681;28;20039;-42
2021/12/06 14:00:57;;;;;;;39.83;23.80;;;;;;;;;;5003344;28;20033;-49
2021/12/06 14:03:36;;;;;;;40.67;23.27;;;;;;;;;;5003062;28;20026;-41
2021/12/06 14:06:06;;;;;;;42.35;24.77;;;;;;;;;;5003021;28;20029;-42
2021/12/06 14:08:32;;;;;;;45.42;25.80;;;;;;;;;;5003352;28;20033;-44
2021/12/06 14:10:58;;;;;;;57.78;32.05;;;;;;;;;;5003120;28;20034;-45
2021/12/06 14:13:25;;;;;;;44.60;27.05;;;;;;;;;;5002664;28;20059;-45
2021/12/06 14:15:54;;;;;;;45.95;25.17;;;;;;;;;;5003163;28;20115;-47
2021/12/06 14:18:24;;;;;;;47.45;28.23;;;;;;;;;;5002889;28;20435;-49
2021/12/06 14:21:00;;;;;;;48.40;27.52;;;;;;;;;;5003224;28;20026;-41
2021/12/06 14:23:27;;;;;;;42.22;25.50;;;;;;;;;;5003276;28;20060;-48
2021/12/06 14:26:02;;;;;;;39.50;24.10;;;;;;;;;;5002876;28;20137;-49
2021/12/06 14:28:29;;;;;;;41.50;22.23;;;;;;;;;;5019629;28;20463;-47
2021/12/06 14:30:58;;;;;;;47.33;25.00;;;;;;;;;;5003229;28;20592;-47
2021/12/06 14:33:27;;;;;;;44.22;23.98;;;;;;;;;;5002544;28;20038;-50
2021/12/06 14:35:54;;;;;;;40.60;20.85;;;;;;;;;;5003148;28;20028;-48
2021/12/06 14:38:23;;;;;;;56.47;27.25;;;;;;;;;;5002758;28;20068;-47
2021/12/06 14:40:50;;;;;;;41.00;24.02;;;;;;;;;;5001988;28;20489;-44